Time;durP1;ratioP1;P1;durP2;ratioP2;P2;SDS_P1;SDS_P2;PMS_P1;PMS_P2;Temp;Humidity;BMP_temperature;BMP_pressure;BME280_temperature;BME280_humidity;BME280_pressure;Samples;Min_cycle;Max_cycle;Signal;HPM_P1;HPM_P2
2023/09/07 00:01:43;;;;;;;7.10;6.30;;;19.60;99.90;;;;;;4916811;29;20178;-66
2023/09/07 00:04:10;;;;;;;7.13;6.40;;;19.50;99.90;;;;;;4916649;29;20184;-68
2023/09/07 00:06:36;;;;;;;7.23;6.50;;;19.50;99.90;;;;;;4915282;29;20674;-65
2023/09/07 00:09:02;;;;;;;6.80;6.20;;;19.50;99.90;;;;;;4916348;29;20413;-66
2023/09/07 00:11:28;;;;;;;8.27;7.47;;;19.50;99.90;;;;;;4916602;29;20690;-65
2023/09/07 00:13:53;;;;;;;7.77;7.07;;;19.40;99.90;;;;;;4916626;29;20555;-68
2023/09/07 00:16:19;;;;;;;7.47;6.67;;;19.40;99.90;;;;;;4916386;29;20185;-65
2023/09/07 00:18:44;;;;;;;8.23;6.00;;;19.40;99.90;;;;;;4916283;29;20248;-65
2023/09/07 00:21:10;;;;;;;9.50;7.03;;;19.40;99.90;;;;;;4925470;29;20212;-66
2023/09/07 00:23:36;;;;;;;7.07;6.23;;;19.40;99.90;;;;;;4935390;29;20180;-66
2023/09/07 00:26:02;;;;;;;7.60;6.90;;;19.30;99.90;;;;;;4951613;29;20259;-65
2023/09/07 00:28:27;;;;;;;7.33;6.63;;;19.30;99.90;;;;;;4954285;29;20190;-66
2023/09/07 00:30:53;;;;;;;8.10;6.80;;;19.20;99.90;;;;;;4954252;29;20475;-66
2023/09/07 00:33:18;;;;;;;8.70;7.80;;;19.20;99.90;;;;;;4954338;28;20224;-67
2023/09/07 00:35:44;;;;;;;9.83;7.77;;;19.10;99.90;;;;;;4954202;29;20196;-68
2023/09/07 00:38:11;;;;;;;10.07;7.30;;;19.00;99.90;;;;;;4937929;29;20231;-70
2023/09/07 00:40:37;;;;;;;8.00;7.20;;;19.00;99.90;;;;;;4916143;29;20173;-67
2023/09/07 00:43:04;;;;;;;8.80;7.67;;;19.00;99.90;;;;;;4916027;29;20935;-68
2023/09/07 00:45:30;;;;;;;11.00;7.53;;;18.90;99.90;;;;;;4916068;29;20172;-65
2023/09/07 00:47:56;;;;;;;7.27;6.60;;;18.90;99.90;;;;;;4915827;29;20440;-67
2023/09/07 00:50:21;;;;;;;9.60;7.27;;;18.90;99.90;;;;;;4915871;29;20441;-68
2023/09/07 00:52:47;;;;;;;8.07;7.00;;;18.90;99.90;;;;;;4915808;29;20169;-66
2023/09/07 00:55:13;;;;;;;8.20;7.40;;;18.90;99.90;;;;;;4914632;29;20209;-67
2023/09/07 00:57:39;;;;;;;7.20;6.50;;;18.90;99.90;;;;;;4915885;29;20429;-66
2023/09/07 01:00:07;;;;;;;7.50;6.80;;;18.90;99.90;;;;;;4915652;29;20180;-68
2023/09/07 01:02:33;;;;;;;6.63;6.03;;;18.90;99.90;;;;;;4915762;29;20899;-68
2023/09/07 01:04:59;;;;;;;6.97;6.37;;;18.90;99.90;;;;;;4915995;29;20517;-66
2023/09/07 01:07:36;;;;;;;7.53;6.77;;;18.90;99.90;;;;;;4915792;29;20453;-65
2023/09/07 01:10:02;;;;;;;6.90;6.00;;;18.90;99.90;;;;;;4915654;29;20168;-68
2023/09/07 01:12:28;;;;;;;8.10;7.00;;;18.80;99.90;;;;;;4914384;29;20453;-66
2023/09/07 01:14:53;;;;;;;6.77;6.10;;;18.80;99.90;;;;;;4934562;29;20877;-67
2023/09/07 01:17:21;;;;;;;7.97;7.20;;;18.80;99.90;;;;;;4934678;29;20200;-67
2023/09/07 01:19:51;;;;;;;7.90;7.10;;;18.70;99.90;;;;;;4934673;29;20177;-67
2023/09/07 01:22:24;;;;;;;7.00;5.90;;;18.70;99.90;;;;;;4934695;29;20507;-68
2023/09/07 01:24:51;;;;;;;8.37;7.37;;;18.60;99.90;;;;;;4941358;29;20415;-70
2023/09/07 01:27:17;;;;;;;7.60;6.90;;;18.50;99.90;;;;;;4942697;28;20530;-67
2023/09/07 01:29:42;;;;;;;8.00;7.20;;;18.50;99.90;;;;;;4912370;29;20444;-67
2023/09/07 01:32:09;;;;;;;7.80;7.10;;;18.50;99.90;;;;;;4915486;29;20257;-67
2023/09/07 01:34:36;;;;;;;8.07;7.30;;;18.40;99.90;;;;;;4915473;29;20601;-67
2023/09/07 01:37:01;;;;;;;9.40;8.07;;;18.40;99.90;;;;;;4915193;29;20484;-65
2023/09/07 01:39:27;;;;;;;9.83;8.70;;;18.30;99.90;;;;;;4915320;29;20417;-65
2023/09/07 01:41:52;;;;;;;9.80;8.90;;;18.30;99.90;;;;;;4915267;29;20161;-67
2023/09/07 01:44:18;;;;;;;8.83;8.03;;;18.30;99.90;;;;;;4915453;29;20179;-68
2023/09/07 01:46:43;;;;;;;8.63;6.83;;;18.30;99.90;;;;;;4914082;29;20268;-66
2023/09/07 01:49:09;;;;;;;10.43;8.50;;;18.30;99.90;;;;;;4915392;29;20651;-67
2023/09/07 01:51:35;;;;;;;8.97;8.07;;;18.30;99.90;;;;;;4915070;29;20211;-66
2023/09/07 01:54:00;;;;;;;10.80;8.10;;;18.30;99.90;;;;;;4915281;29;20206;-66
2023/09/07 01:56:26;;;;;;;10.13;7.97;;;18.20;99.90;;;;;;4915682;29;20436;-68
2023/09/07 01:58:52;;;;;;;8.17;7.43;;;18.20;99.90;;;;;;4919167;29;20181;-65
2023/09/07 02:01:21;;;;;;;8.17;7.37;;;18.20;99.90;;;;;;4917685;29;20233;-66
2023/09/07 02:03:47;;;;;;;8.47;7.60;;;18.20;99.90;;;;;;4918939;29;20562;-66
2023/09/07 02:06:13;;;;;;;8.30;7.03;;;18.20;99.90;;;;;;4918898;29;20511;-67
2023/09/07 02:08:38;;;;;;;8.73;7.70;;;18.10;99.90;;;;;;4918778;29;20242;-66
2023/09/07 02:11:05;;;;;;;8.23;7.33;;;18.30;99.90;;;;;;4918935;29;20242;-66
2023/09/07 02:13:31;;;;;;;7.93;7.13;;;18.20;99.90;;;;;;4918933;29;20290;-66
2023/09/07 02:15:57;;;;;;;7.53;6.70;;;18.10;99.90;;;;;;4918706;29;20510;-69
2023/09/07 02:18:22;;;;;;;7.70;7.00;;;18.10;99.90;;;;;;4917024;29;20211;-66
2023/09/07 02:20:48;;;;;;;8.20;6.50;;;18.10;99.90;;;;;;4922447;29;20183;-66
2023/09/07 02:23:14;;;;;;;9.30;6.77;;;18.00;99.90;;;;;;4937536;29;20174;-67
2023/09/07 02:25:40;;;;;;;7.20;6.57;;;18.10;99.90;;;;;;4950897;29;20209;-66
2023/09/07 02:28:06;;;;;;;8.70;7.83;;;18.00;99.90;;;;;;4956301;29;20452;-67
2023/09/07 02:30:32;;;;;;;9.07;8.17;;;17.90;99.90;;;;;;4957079;29;20419;-67
2023/09/07 02:32:57;;;;;;;8.37;7.47;;;17.90;99.90;;;;;;4956593;29;20171;-68
2023/09/07 02:35:23;;;;;;;12.00;8.40;;;17.90;99.90;;;;;;4946946;29;20481;-67
2023/09/07 02:37:48;;;;;;;8.87;7.97;;;17.90;99.90;;;;;;4937313;29;20202;-66
2023/09/07 02:40:15;;;;;;;9.40;7.23;;;17.90;99.90;;;;;;4937392;29;20244;-67
2023/09/07 02:42:42;;;;;;;7.57;6.87;;;18.00;99.90;;;;;;4937223;29;20658;-67
2023/09/07 02:45:12;;;;;;;12.87;7.40;;;18.00;99.90;;;;;;4937221;29;20403;-66
2023/09/07 02:47:39;;;;;;;12.43;7.47;;;17.90;99.90;;;;;;4937497;29;20423;-68
2023/09/07 02:50:05;;;;;;;7.87;7.07;;;18.00;99.90;;;;;;4936914;29;20423;-66
2023/09/07 02:52:31;;;;;;;8.60;7.70;;;18.00;99.90;;;;;;4915139;29;20483;-66
2023/09/07 02:54:56;;;;;;;8.77;7.30;;;17.90;99.90;;;;;;4917977;29;20462;-67
2023/09/07 02:57:22;;;;;;;6.97;6.47;;;17.90;99.90;;;;;;4917873;29;20192;-69
2023/09/07 02:59:47;;;;;;;10.37;7.43;;;17.90;99.90;;;;;;4917794;29;20189;-67
2023/09/07 03:02:13;;;;;;;9.90;6.40;;;17.90;99.90;;;;;;4917902;29;20509;-66
2023/09/07 03:04:38;;;;;;;7.30;6.60;;;17.90;99.90;;;;;;4917962;29;20239;-67
2023/09/07 03:07:04;;;;;;;6.77;6.17;;;17.90;99.90;;;;;;4917690;29;20262;-66
2023/09/07 03:09:29;;;;;;;10.00;6.10;;;17.90;99.90;;;;;;4927771;29;20197;-66
2023/09/07 03:11:55;;;;;;;7.93;6.80;;;17.90;99.90;;;;;;4936633;29;20177;-67
2023/09/07 03:14:21;;;;;;;7.57;6.80;;;17.80;99.90;;;;;;4936658;29;20199;-67
2023/09/07 03:16:50;;;;;;;6.73;6.13;;;17.90;99.90;;;;;;4936452;29;20570;-67
2023/09/07 03:19:15;;;;;;;7.20;6.50;;;17.90;99.90;;;;;;4936705;29;20245;-67
2023/09/07 03:21:41;;;;;;;8.43;7.00;;;17.90;99.90;;;;;;4936534;29;20418;-67
2023/09/07 03:24:06;;;;;;;8.90;6.40;;;18.00;99.90;;;;;;4930513;29;20658;-66
2023/09/07 03:26:32;;;;;;;7.67;6.93;;;18.00;99.90;;;;;;4955439;28;20215;-67
2023/09/07 03:28:58;;;;;;;8.57;6.80;;;18.00;99.90;;;;;;4955622;28;20533;-67
2023/09/07 03:31:23;;;;;;;14.17;7.40;;;18.00;99.90;;;;;;4955401;28;20177;-67
2023/09/07 03:33:49;;;;;;;8.00;7.13;;;18.00;99.90;;;;;;4955483;29;20284;-67
2023/09/07 03:36:15;;;;;;;12.10;7.73;;;17.90;99.90;;;;;;4955643;29;20182;-66
2023/09/07 03:38:41;;;;;;;7.40;6.70;;;17.90;99.90;;;;;;4955410;29;20173;-66
2023/09/07 03:41:07;;;;;;;10.33;7.73;;;17.90;99.90;;;;;;4940103;28;20514;-67
2023/09/07 03:43:32;;;;;;;7.50;6.80;;;17.90;99.90;;;;;;4918011;29;20464;-67
2023/09/07 03:45:58;;;;;;;9.23;7.67;;;17.90;99.90;;;;;;4917301;29;20182;-67
2023/09/07 03:48:24;;;;;;;8.90;7.77;;;17.90;99.90;;;;;;4916806;29;20286;-68
2023/09/07 03:50:50;;;;;;;7.93;7.13;;;17.90;99.90;;;;;;4917020;29;20191;-67
2023/09/07 03:53:16;;;;;;;8.17;7.23;;;17.90;99.90;;;;;;4916892;29;20176;-67
2023/09/07 03:55:45;;;;;;;8.77;7.03;;;17.90;99.90;;;;;;4916881;29;20411;-69
2023/09/07 03:58:11;;;;;;;7.40;6.70;;;17.90;99.90;;;;;;4928109;29;20487;-71
2023/09/07 04:00:40;;;;;;;14.40;8.67;;;17.90;99.90;;;;;;4929224;29;20513;-66
2023/09/07 04:03:09;;;;;;;7.30;6.70;;;17.80;99.90;;;;;;4942927;29;20403;-68
2023/09/07 04:05:37;;;;;;;8.00;7.20;;;17.90;99.90;;;;;;4939203;29;20407;-66
2023/09/07 04:08:03;;;;;;;10.90;7.27;;;17.80;99.90;;;;;;4925204;29;20449;-68
2023/09/07 04:10:29;;;;;;;8.40;7.50;;;17.80;99.90;;;;;;4937001;29;20429;-67
2023/09/07 04:12:54;;;;;;;8.97;8.17;;;17.80;99.90;;;;;;4935511;29;20446;-67
2023/09/07 04:15:20;;;;;;;9.23;7.17;;;17.80;99.90;;;;;;4937753;28;20197;-66
2023/09/07 04:17:46;;;;;;;7.87;7.13;;;17.70;99.90;;;;;;4933840;29;20214;-67
2023/09/07 04:20:11;;;;;;;9.17;7.17;;;17.70;99.90;;;;;;4933898;29;20178;-67
2023/09/07 04:22:39;;;;;;;10.43;7.50;;;17.70;99.90;;;;;;4934245;29;20172;-67
2023/09/07 04:25:05;;;;;;;10.37;8.40;;;17.60;99.90;;;;;;4935200;29;20173;-67
2023/09/07 04:27:31;;;;;;;9.13;8.20;;;17.70;99.90;;;;;;4926189;29;20535;-67
2023/09/07 04:29:57;;;;;;;8.87;8.07;;;17.70;99.90;;;;;;4936920;29;20225;-66
2023/09/07 04:32:22;;;;;;;13.57;8.77;;;17.60;99.90;;;;;;4934764;29;20464;-67
2023/09/07 04:34:56;;;;;;;8.60;7.80;;;17.60;99.90;;;;;;4885912;29;20203;-67
2023/09/07 04:37:22;;;;;;;9.90;8.80;;;17.60;99.90;;;;;;4930861;29;20780;-66
2023/09/07 04:39:52;;;;;;;9.70;8.80;;;17.60;99.90;;;;;;4933745;29;20414;-67
2023/09/07 04:42:18;;;;;;;10.20;8.77;;;17.60;99.90;;;;;;4932710;29;20552;-68
2023/09/07 04:44:43;;;;;;;8.57;7.53;;;17.60;99.90;;;;;;4939396;29;20968;-67
2023/09/07 04:47:09;;;;;;;9.30;8.30;;;17.60;99.90;;;;;;4937592;28;20233;-66
2023/09/07 04:49:34;;;;;;;9.20;8.27;;;17.70;99.90;;;;;;4933882;29;20181;-66
2023/09/07 04:52:00;;;;;;;8.00;7.30;;;17.80;99.90;;;;;;4934725;29;20234;-67
2023/09/07 04:54:26;;;;;;;10.87;7.77;;;17.70;99.90;;;;;;4933445;29;20201;-67
2023/09/07 04:56:51;;;;;;;8.33;7.40;;;17.70;99.90;;;;;;4933385;29;20194;-67
2023/09/07 04:59:17;;;;;;;9.20;7.60;;;17.80;99.90;;;;;;4933833;29;20278;-68
2023/09/07 05:01:43;;;;;;;8.90;7.53;;;17.80;99.90;;;;;;4937009;29;20173;-68
2023/09/07 05:04:08;;;;;;;12.10;8.47;;;17.80;99.90;;;;;;4933694;29;20207;-68
2023/09/07 05:06:37;;;;;;;9.40;8.43;;;17.90;99.90;;;;;;4936424;29;20526;-68
2023/09/07 05:09:03;;;;;;;9.07;8.10;;;17.90;99.90;;;;;;4933337;29;20175;-68
2023/09/07 05:11:29;;;;;;;10.27;7.57;;;17.90;99.90;;;;;;4936091;29;20454;-68
2023/09/07 05:13:55;;;;;;;10.00;8.17;;;17.90;99.90;;;;;;4933193;29;20497;-68
2023/09/07 05:16:20;;;;;;;9.27;7.20;;;17.90;99.90;;;;;;4917285;29;20643;-68
2023/09/07 05:18:46;;;;;;;9.60;8.57;;;18.00;99.90;;;;;;4936459;29;20172;-67
2023/09/07 05:21:15;;;;;;;11.77;8.23;;;17.90;99.90;;;;;;4935011;29;20166;-67
2023/09/07 05:23:41;;;;;;;9.53;8.20;;;17.90;99.90;;;;;;4934914;29;20182;-67
2023/09/07 05:26:07;;;;;;;8.93;7.70;;;17.90;99.90;;;;;;4933229;29;20928;-67
2023/09/07 05:28:32;;;;;;;12.03;8.20;;;18.00;99.90;;;;;;4933754;29;20432;-68
2023/09/07 05:30:58;;;;;;;8.27;7.50;;;18.10;99.90;;;;;;4933345;29;20242;-68
2023/09/07 05:33:24;;;;;;;9.50;7.83;;;18.10;99.90;;;;;;4936668;29;20183;-67
2023/09/07 05:35:49;;;;;;;13.53;8.13;;;18.10;99.90;;;;;;4931209;29;20178;-67
2023/09/07 05:38:15;;;;;;;8.63;7.60;;;18.20;99.90;;;;;;4936100;29;20194;-68
2023/09/07 05:40:43;;;;;;;9.17;8.03;;;18.20;99.90;;;;;;4932747;29;20171;-67
2023/09/07 05:43:10;;;;;;;11.67;7.83;;;18.30;99.90;;;;;;4933104;29;20172;-68
2023/09/07 05:45:38;;;;;;;8.30;7.40;;;18.40;99.90;;;;;;4932882;29;20510;-68
2023/09/07 05:48:04;;;;;;;10.97;7.60;;;18.60;99.90;;;;;;4907238;29;20497;-71
2023/09/07 05:50:31;;;;;;;7.07;6.20;;;19.00;99.90;;;;;;4933062;29;20499;-69
2023/09/07 05:52:57;;;;;;;7.73;7.07;;;19.40;99.90;;;;;;4915847;29;20404;-70
2023/09/07 05:55:22;;;;;;;8.03;6.17;;;19.70;99.90;;;;;;4932742;29;20461;-69
2023/09/07 05:57:49;;;;;;;8.47;7.00;;;20.10;99.90;;;;;;4932934;29;20191;-68
2023/09/07 06:00:16;;;;;;;7.30;6.60;;;20.60;99.90;;;;;;4932772;29;20173;-69
2023/09/07 06:02:43;;;;;;;7.13;6.50;;;21.10;99.90;;;;;;4929266;29;20405;-69
2023/09/07 06:05:08;;;;;;;9.57;6.97;;;21.70;99.90;;;;;;4931527;29;20446;-69
2023/09/07 06:07:34;;;;;;;7.80;6.03;;;22.10;99.90;;;;;;4938855;29;20813;-69
2023/09/07 06:10:00;;;;;;;10.30;6.53;;;22.30;99.90;;;;;;4915555;29;20660;-69
2023/09/07 06:12:25;;;;;;;7.20;5.50;;;22.40;99.90;;;;;;4932907;29;20176;-68
2023/09/07 06:14:51;;;;;;;9.10;6.03;;;22.50;99.90;;;;;;4932773;29;20563;-70
2023/09/07 06:17:16;;;;;;;9.20;6.53;;;22.70;99.90;;;;;;4932749;29;20192;-69
2023/09/07 06:19:42;;;;;;;7.30;5.73;;;22.90;99.90;;;;;;4932632;29;20171;-69
2023/09/07 06:22:08;;;;;;;7.47;6.67;;;23.50;99.90;;;;;;4930598;29;20179;-68
2023/09/07 06:24:33;;;;;;;9.47;6.20;;;24.00;99.90;;;;;;4929778;29;20591;-70
2023/09/07 06:26:59;;;;;;;7.40;5.90;;;24.10;99.90;;;;;;4916787;29;20546;-68
2023/09/07 06:29:25;;;;;;;10.13;6.03;;;24.20;99.90;;;;;;4925325;29;20614;-69
2023/09/07 06:31:52;;;;;;;7.63;6.33;;;24.20;99.90;;;;;;4930543;29;20184;-69
2023/09/07 06:34:17;;;;;;;10.20;5.37;;;23.90;99.90;;;;;;4932345;29;20205;-70
2023/09/07 06:36:43;;;;;;;8.57;6.07;;;24.20;99.90;;;;;;4921013;29;20436;-69
2023/09/07 06:39:09;;;;;;;7.43;6.37;;;24.60;99.90;;;;;;4930127;29;20186;-69
2023/09/07 06:41:34;;;;;;;7.60;5.50;;;24.70;99.90;;;;;;4914018;29;20642;-70
2023/09/07 06:44:00;;;;;;;8.33;6.03;;;24.70;99.90;;;;;;4925333;29;20206;-70
2023/09/07 06:48:53;;;;;;;6.40;5.53;;;25.70;99.90;;;;;;4943007;28;20554;-73
2023/09/07 06:51:19;;;;;;;6.53;5.93;;;25.60;99.90;;;;;;4954307;28;20417;-73
2023/09/07 06:53:45;;;;;;;9.20;5.30;;;26.20;99.90;;;;;;4955568;29;20206;-71
2023/09/07 06:56:11;;;;;;;7.93;5.20;;;26.70;99.90;;;;;;4955105;29;20418;-72
2023/09/07 06:58:36;;;;;;;6.00;5.40;;;27.00;99.90;;;;;;4942777;28;20217;-71
2023/09/07 07:01:04;;;;;;;8.63;5.23;;;27.10;99.90;;;;;;4936104;29;20231;-72
2023/09/07 07:03:30;;;;;;;9.97;5.80;;;27.20;99.90;;;;;;4936127;29;20181;-71
2023/09/07 07:05:56;;;;;;;11.00;6.93;;;27.20;99.90;;;;;;4937719;29;20439;-72
2023/09/07 07:08:22;;;;;;;6.23;5.60;;;27.40;99.90;;;;;;4939186;29;20449;-73
2023/09/07 07:10:48;;;;;;;6.17;5.67;;;27.40;99.90;;;;;;4936244;29;20411;-72
2023/09/07 07:13:14;;;;;;;6.73;5.20;;;27.90;99.90;;;;;;4918866;29;20758;-72
2023/09/07 07:15:39;;;;;;;8.40;5.53;;;28.20;99.90;;;;;;4936821;29;20167;-71
2023/09/07 07:18:09;;;;;;;7.27;5.27;;;28.50;99.90;;;;;;4939650;29;20195;-71
2023/09/07 07:20:38;;;;;;;7.80;5.53;;;28.80;99.90;;;;;;4935557;29;20206;-73
2023/09/07 07:23:06;;;;;;;6.27;5.50;;;28.80;99.90;;;;;;4936041;29;20407;-72
2023/09/07 07:25:33;;;;;;;8.80;6.03;;;29.20;99.90;;;;;;4935582;29;20415;-73
2023/09/07 07:28:05;;;;;;;8.40;5.70;;;29.00;99.90;;;;;;4935199;29;20450;-71
2023/09/07 07:30:36;;;;;;;7.23;5.17;;;29.30;99.90;;;;;;4934697;29;20550;-72
2023/09/07 07:33:03;;;;;;;7.97;4.83;;;29.30;99.90;;;;;;4937911;29;20438;-71
2023/09/07 07:35:29;;;;;;;5.47;4.80;;;29.10;99.90;;;;;;4935357;29;20490;-71
2023/09/07 07:37:55;;;;;;;4.80;4.30;;;29.20;99.30;;;;;;4935813;29;20782;-71
2023/09/07 07:40:21;;;;;;;5.40;4.90;;;29.20;99.20;;;;;;4935280;29;20461;-72
2023/09/07 07:42:47;;;;;;;9.13;5.33;;;29.20;98.70;;;;;;4935054;29;20167;-70
2023/09/07 07:45:13;;;;;;;5.43;4.97;;;28.40;99.40;;;;;;4935448;29;20589;-71
2023/09/07 07:47:41;;;;;;;6.27;4.27;;;28.80;99.40;;;;;;4933139;29;20446;-72
2023/09/07 07:50:07;;;;;;;5.30;4.90;;;28.90;99.20;;;;;;4941090;29;20449;-71
2023/09/07 07:52:33;;;;;;;5.93;4.73;;;29.30;98.30;;;;;;4935139;29;20535;-72
2023/09/07 07:54:59;;;;;;;6.73;4.47;;;29.40;97.80;;;;;;4938356;29;20451;-73
2023/09/07 07:57:25;;;;;;;7.50;4.83;;;29.40;97.60;;;;;;4940988;29;20941;-72
2023/09/07 07:59:50;;;;;;;6.80;4.17;;;29.60;97.50;;;;;;4942420;29;20697;-72
2023/09/07 08:02:16;;;;;;;4.87;4.40;;;29.50;97.70;;;;;;4948472;29;20239;-70
2023/09/07 08:04:41;;;;;;;7.40;5.17;;;28.80;97.10;;;;;;4934183;29;20650;-73
2023/09/07 08:07:08;;;;;;;5.43;4.30;;;29.00;97.10;;;;;;4934751;29;20210;-72
2023/09/07 08:09:34;;;;;;;4.93;4.43;;;28.60;98.20;;;;;;4934739;29;20612;-74
2023/09/07 08:12:02;;;;;;;6.73;4.90;;;29.30;97.70;;;;;;4934846;29;20418;-72
2023/09/07 08:14:28;;;;;;;4.70;4.10;;;29.60;95.70;;;;;;4934587;29;20486;-71
2023/09/07 08:16:55;;;;;;;4.57;4.20;;;29.80;96.30;;;;;;4934392;29;20430;-71
2023/09/07 08:19:20;;;;;;;11.23;4.47;;;29.80;95.60;;;;;;4933395;29;20429;-71
2023/09/07 08:21:47;;;;;;;4.93;4.53;;;30.10;95.40;;;;;;4939974;29;20472;-72
2023/09/07 08:24:12;;;;;;;5.87;4.77;;;30.10;94.30;;;;;;4934737;29;20258;-71
2023/09/07 08:26:38;;;;;;;5.83;3.90;;;29.00;94.80;;;;;;4938719;29;20418;-72
2023/09/07 08:29:05;;;;;;;5.27;4.77;;;29.60;94.80;;;;;;4917742;29;20183;-72
2023/09/07 08:31:41;;;;;;;5.10;4.10;;;29.50;95.10;;;;;;4934318;29;20250;-71
2023/09/07 08:34:14;;;;;;;4.50;4.10;;;29.70;95.20;;;;;;4934187;29;20565;-72
2023/09/07 08:36:40;;;;;;;4.90;4.40;;;30.00;94.80;;;;;;4932756;29;20887;-73
2023/09/07 08:39:09;;;;;;;5.10;4.60;;;29.60;93.90;;;;;;4937029;29;20470;-72
2023/09/07 08:41:43;;;;;;;4.60;4.20;;;29.20;94.60;;;;;;4952543;29;20178;-73
2023/09/07 08:44:10;;;;;;;5.07;4.57;;;29.30;95.00;;;;;;4934009;29;20550;-73
2023/09/07 08:46:37;;;;;;;6.97;4.30;;;30.10;93.60;;;;;;4933880;29;20848;-72
2023/09/07 08:49:04;;;;;;;3.97;3.67;;;29.90;94.60;;;;;;4935727;29;20449;-72
2023/09/07 08:51:31;;;;;;;5.87;5.00;;;30.40;93.70;;;;;;4938787;29;20901;-71
2023/09/07 08:54:00;;;;;;;4.07;3.70;;;29.70;92.90;;;;;;4933476;29;20457;-73
2023/09/07 08:56:26;;;;;;;4.00;3.60;;;29.80;93.30;;;;;;4935902;28;20948;-71
2023/09/07 08:58:54;;;;;;;5.37;3.80;;;29.80;92.80;;;;;;4930324;29;20414;-71
2023/09/07 09:01:23;;;;;;;5.40;4.30;;;29.00;93.40;;;;;;4918040;29;20186;-71
2023/09/07 09:03:52;;;;;;;5.53;4.30;;;28.90;93.70;;;;;;4933892;29;20414;-71
2023/09/07 09:06:21;;;;;;;4.40;4.00;;;29.00;93.70;;;;;;4933025;29;20904;-71
2023/09/07 09:08:52;;;;;;;4.60;4.20;;;29.00;94.00;;;;;;4929819;29;20545;-73
2023/09/07 09:11:18;;;;;;;4.00;3.63;;;29.30;93.30;;;;;;4930774;29;20415;-72
2023/09/07 09:13:44;;;;;;;5.50;3.83;;;29.00;93.70;;;;;;4933728;29;20476;-71
2023/09/07 09:16:11;;;;;;;5.50;4.50;;;29.00;93.60;;;;;;4934705;29;20415;-71
2023/09/07 09:18:37;;;;;;;4.63;3.90;;;28.80;93.90;;;;;;4933526;29;20194;-72
2023/09/07 09:21:04;;;;;;;5.43;4.90;;;28.80;93.90;;;;;;4933761;29;20407;-71
2023/09/07 09:23:33;;;;;;;4.73;4.33;;;28.50;94.40;;;;;;4933523;29;20976;-72
2023/09/07 09:26:00;;;;;;;6.73;4.50;;;28.70;94.20;;;;;;4935922;29;20435;-72
2023/09/07 09:28:27;;;;;;;5.00;4.47;;;28.80;93.10;;;;;;4935445;29;21282;-71
2023/09/07 09:30:54;;;;;;;5.60;3.97;;;28.40;94.30;;;;;;4935923;29;20903;-71
2023/09/07 09:33:21;;;;;;;4.77;4.37;;;28.30;94.50;;;;;;4933444;29;20538;-72
2023/09/07 09:35:47;;;;;;;6.53;4.20;;;28.70;94.30;;;;;;4933335;29;20517;-71
2023/09/07 09:38:14;;;;;;;4.80;4.40;;;29.00;93.80;;;;;;4933401;29;20433;-72
2023/09/07 09:40:40;;;;;;;5.33;4.90;;;28.70;93.90;;;;;;4935931;29;20451;-71
2023/09/07 09:43:06;;;;;;;8.17;4.40;;;28.70;94.50;;;;;;4927235;28;20522;-70
2023/09/07 09:45:33;;;;;;;8.07;4.87;;;28.90;93.30;;;;;;4947203;28;20508;-70
2023/09/07 09:48:01;;;;;;;4.80;4.37;;;28.50;94.30;;;;;;4936345;29;20956;-74
2023/09/07 09:50:28;;;;;;;5.00;4.50;;;28.20;94.10;;;;;;4947271;28;20426;-72
2023/09/07 09:52:53;;;;;;;6.47;4.60;;;28.00;94.60;;;;;;4918953;29;20419;-71
2023/09/07 09:55:19;;;;;;;6.43;4.93;;;27.70;94.70;;;;;;4924340;29;20455;-70
2023/09/07 09:57:45;;;;;;;5.13;4.63;;;27.70;95.30;;;;;;4944887;28;20649;-72
2023/09/07 10:00:28;;;;;;;5.07;4.50;;;27.90;94.40;;;;;;4914195;29;20176;-70
2023/09/07 10:03:18;;;;;;;4.63;4.17;;;27.80;94.60;;;;;;4915652;29;20177;-71
2023/09/07 10:05:46;;;;;;;6.23;4.30;;;27.50;95.10;;;;;;4933290;29;20433;-69
2023/09/07 10:08:16;;;;;;;6.97;4.77;;;27.30;95.20;;;;;;4933267;29;20446;-70
2023/09/07 10:10:44;;;;;;;4.87;4.37;;;27.40;94.60;;;;;;4932879;29;20415;-70
2023/09/07 10:13:13;;;;;;;6.90;4.30;;;27.20;95.60;;;;;;4930927;29;20423;-70
2023/09/07 10:15:41;;;;;;;7.40;3.80;;;27.10;94.70;;;;;;4933531;29;20461;-70
2023/09/07 10:18:15;;;;;;;4.63;4.23;;;26.90;94.20;;;;;;4919745;29;20505;-69
2023/09/07 10:21:06;;;;;;;4.37;3.97;;;26.80;94.50;;;;;;4922980;29;20435;-70
2023/09/07 10:23:39;;;;;;;6.27;5.20;;;26.80;95.00;;;;;;4934492;29;20806;-67
2023/09/07 10:26:05;;;;;;;10.83;8.47;;;27.00;94.80;;;;;;4937806;29;20412;-67
2023/09/07 10:28:32;;;;;;;5.80;4.33;;;27.10;93.10;;;;;;4938236;29;20500;-70
2023/09/07 10:31:13;;;;;;;5.80;3.67;;;27.10;93.00;;;;;;4931214;29;20529;-71
2023/09/07 10:33:39;;;;;;;4.30;3.53;;;26.90;92.70;;;;;;4929893;29;20943;-70
2023/09/07 10:36:05;;;;;;;5.20;3.53;;;26.90;92.20;;;;;;4920441;29;20445;-73
2023/09/07 10:38:32;;;;;;;4.43;4.03;;;26.90;92.50;;;;;;4934321;29;20209;-71
2023/09/07 10:41:00;;;;;;;4.30;3.67;;;27.10;92.80;;;;;;4931147;29;20442;-73
2023/09/07 10:43:30;;;;;;;4.40;3.40;;;26.90;93.00;;;;;;4935279;29;20473;-72
2023/09/07 10:45:56;;;;;;;4.53;3.77;;;27.10;93.10;;;;;;4937333;29;20496;-70
2023/09/07 10:48:23;;;;;;;7.97;3.80;;;27.00;92.90;;;;;;4936952;29;20887;-74
2023/09/07 10:50:51;;;;;;;4.30;3.90;;;27.10;92.50;;;;;;4937450;29;20895;-69
2023/09/07 10:53:25;;;;;;;3.80;3.50;;;27.20;92.40;;;;;;4936917;29;20471;-74
2023/09/07 10:55:51;;;;;;;3.80;3.50;;;27.40;92.00;;;;;;4936858;29;20787;-71
2023/09/07 10:58:29;;;;;;;4.03;3.37;;;27.40;91.80;;;;;;4936837;29;20425;-72
2023/09/07 11:00:55;;;;;;;3.87;3.30;;;27.50;91.80;;;;;;4937179;29;20399;-72
2023/09/07 11:03:21;;;;;;;3.83;3.43;;;27.60;91.80;;;;;;4937388;29;20406;-72
2023/09/07 11:05:48;;;;;;;3.60;3.30;;;27.50;91.30;;;;;;4937151;29;20866;-73
2023/09/07 11:08:14;;;;;;;3.87;3.50;;;27.40;91.60;;;;;;4937294;29;20434;-72
2023/09/07 11:10:40;;;;;;;4.07;3.67;;;27.50;91.20;;;;;;4937193;29;20904;-72
2023/09/07 11:13:06;;;;;;;4.33;3.90;;;27.60;91.40;;;;;;4937215;29;20174;-71
2023/09/07 11:15:33;;;;;;;5.43;3.77;;;27.40;91.60;;;;;;4937002;29;20208;-71
2023/09/07 11:18:06;;;;;;;4.70;4.07;;;27.40;92.00;;;;;;4936898;29;20939;-71
2023/09/07 11:20:33;;;;;;;3.60;3.23;;;27.50;92.10;;;;;;4937048;29;20406;-72
2023/09/07 11:23:00;;;;;;;4.40;4.10;;;27.40;92.40;;;;;;4936791;29;20417;-74
2023/09/07 11:25:25;;;;;;;5.40;4.70;;;27.60;92.40;;;;;;4936843;29;20791;-72
2023/09/07 11:27:54;;;;;;;4.30;3.90;;;27.60;92.90;;;;;;4936624;29;20440;-71
2023/09/07 11:30:21;;;;;;;3.67;3.37;;;27.60;92.30;;;;;;4935750;29;20170;-74
2023/09/07 11:32:47;;;;;;;3.97;3.57;;;27.60;92.00;;;;;;4936603;29;20504;-70
2023/09/07 11:35:13;;;;;;;3.47;3.17;;;27.60;91.60;;;;;;4936542;29;20541;-72
2023/09/07 11:37:40;;;;;;;3.87;3.47;;;27.40;91.30;;;;;;4936471;29;20219;-71
2023/09/07 11:40:11;;;;;;;4.73;4.33;;;27.50;91.20;;;;;;4936203;29;20505;-71
2023/09/07 11:42:38;;;;;;;5.10;3.20;;;27.50;90.80;;;;;;4936376;29;20452;-70
2023/09/07 11:45:06;;;;;;;3.70;3.40;;;27.60;90.30;;;;;;4936076;29;20913;-69
2023/09/07 11:47:32;;;;;;;6.20;4.00;;;27.70;91.20;;;;;;4935958;29;20464;-71
2023/09/07 11:49:57;;;;;;;3.50;3.20;;;27.90;90.60;;;;;;4935985;29;20507;-72
2023/09/07 11:52:23;;;;;;;3.60;3.20;;;27.70;90.30;;;;;;4936082;29;20190;-69
2023/09/07 11:54:49;;;;;;;4.43;3.90;;;27.60;90.40;;;;;;4936386;29;20609;-69
2023/09/07 11:57:16;;;;;;;4.13;3.57;;;27.70;90.70;;;;;;4936112;29;20563;-70
2023/09/07 11:59:41;;;;;;;3.10;2.90;;;27.60;90.70;;;;;;4935997;29;20414;-71
2023/09/07 12:02:07;;;;;;;3.50;3.20;;;27.70;90.90;;;;;;4935961;29;20419;-70
2023/09/07 12:04:33;;;;;;;4.07;3.67;;;27.80;91.10;;;;;;4936173;29;20182;-72
2023/09/07 12:06:59;;;;;;;3.57;3.27;;;27.80;90.40;;;;;;4935704;29;20692;-72
2023/09/07 12:09:24;;;;;;;3.30;3.00;;;27.70;90.30;;;;;;4936012;29;20415;-69
2023/09/07 12:11:50;;;;;;;4.47;4.07;;;27.80;89.90;;;;;;4935844;29;20552;-69
2023/09/07 12:14:15;;;;;;;5.53;3.67;;;27.80;89.80;;;;;;4935799;29;20213;-70
2023/09/07 12:16:41;;;;;;;3.70;3.40;;;27.70;89.40;;;;;;4935675;29;20171;-69
2023/09/07 12:19:07;;;;;;;5.00;3.87;;;27.70;90.10;;;;;;4935799;29;20167;-70
2023/09/07 12:21:32;;;;;;;3.97;3.63;;;27.70;90.80;;;;;;4935718;29;20703;-69
2023/09/07 12:23:58;;;;;;;3.57;3.27;;;28.00;90.60;;;;;;4935979;29;20186;-70
2023/09/07 12:26:23;;;;;;;4.17;3.40;;;27.90;90.40;;;;;;4935417;29;20190;-70
2023/09/07 12:28:49;;;;;;;3.30;3.00;;;27.90;89.40;;;;;;4935396;29;20284;-72
2023/09/07 12:31:15;;;;;;;4.07;3.50;;;28.00;89.10;;;;;;4935401;29;20541;-70
2023/09/07 12:33:40;;;;;;;4.23;3.93;;;27.90;88.90;;;;;;4935513;29;20234;-71
2023/09/07 12:36:09;;;;;;;4.60;3.40;;;27.90;89.80;;;;;;4935329;29;20667;-70
2023/09/07 12:38:35;;;;;;;4.10;3.80;;;27.90;90.40;;;;;;4935347;29;20226;-70
2023/09/07 12:41:00;;;;;;;4.97;4.57;;;28.00;90.10;;;;;;4935245;29;20446;-70
2023/09/07 12:43:26;;;;;;;4.60;3.13;;;27.90;89.20;;;;;;4935377;29;20167;-72
2023/09/07 12:45:51;;;;;;;3.77;3.47;;;28.00;90.20;;;;;;4935361;29;20677;-70